sim
Sign-in with your pilot id or email,
or register
Callsign
Passwort

Schedule Details

Flight Number: RYR1164 (2)
Departure: London Stansted Airport (EGSS) at 11:50
Arrival: Belfast International Airport (EGAA) at 13:20
Route: Ryanair Passenger Schedule. Enter filed route here before submitting Pirep.

Weather Information
Getting current METAR information for EGSS 241520Z AUTO 09008KT 1900 -SN BKN003/// BKN007/// BKN011/// //////TCU 01/00 Q0994
Getting current METAR information for EGAA 241520Z 24004KT CAVOK 01/01 Q0999

Schedule Frequency

Route Map